Time;durP1;ratioP1;P1;durP2;ratioP2;P2;SDS_P1;SDS_P2;PMS_P1;PMS_P2;Temp;Humidity;BMP_temperature;BMP_pressure;BME280_temperature;BME280_humidity;BME280_pressure;Samples;Min_cycle;Max_cycle;Signal;HPM_P1;HPM_P2
2023/01/28 00:01:53;;;;;;;;;;;;;;;;;;5009554;28;19921;-44
2023/01/28 00:04:18;;;;;;;;;;;;;;;;;;5007688;28;20665;-45
2023/01/28 00:06:43;;;;;;;;;;;;;;;;;;5007333;28;19928;-46
2023/01/28 00:09:09;;;;;;;;;;;;;;;;;;5007505;28;19949;-44
2023/01/28 00:11:34;;;;;;;;;;;;;;;;;;5007633;28;19917;-49
2023/01/28 00:13:59;;;;;;;;;;;;;;;;;;5009065;28;19974;-45
2023/01/28 00:16:26;;;;;;;;;;;;;;;;;;5007940;28;19917;-47
2023/01/28 00:18:51;;;;;;;;;;;;;;;;;;5006479;28;19959;-47
2023/01/28 00:21:16;;;;;;;;;;;;;;;;;;5007788;28;20359;-45
2023/01/28 00:23:46;;;;;;;;;;;;;;;;;;5008398;28;19925;-45
2023/01/28 00:26:12;;;;;;;;;;;;;;;;;;5008960;28;19921;-45
2023/01/28 00:28:38;;;;;;;;;;;;;;;;;;5008164;28;19921;-47
2023/01/28 00:31:06;;;;;;;;;;;;;;;;;;5007512;28;19944;-47
2023/01/28 00:33:32;;;;;;;;;;;;;;;;;;5009223;28;19922;-45
2023/01/28 00:35:59;;;;;;;;;;;;;;;;;;5007666;28;20337;-50
2023/01/28 00:38:24;;;;;;;;;;;;;;;;;;5005990;28;19948;-47
2023/01/28 00:40:49;;;;;;;;;;;;;;;;;;5004928;28;19913;-46
2023/01/28 00:43:14;;;;;;;;;;;;;;;;;;5005516;28;19922;-44
2023/01/28 00:45:40;;;;;;;;;;;;;;;;;;5010305;28;19925;-44
2023/01/28 00:48:05;;;;;;;;;;;;;;;;;;5008275;28;19929;-49
2023/01/28 00:50:31;;;;;;;;;;;;;;;;;;5006974;28;20321;-47
2023/01/28 00:52:56;;;;;;;;;;;;;;;;;;5006606;28;19979;-46
2023/01/28 00:55:21;;;;;;;;;;;;;;;;;;5004269;28;19925;-44
2023/01/28 00:57:47;;;;;;;;;;;;;;;;;;5008832;28;20298;-49
2023/01/28 01:00:12;;;;;;;;;;;;;;;;;;5006058;28;19917;-50
2023/01/28 01:02:38;;;;;;;;;;;;;;;;;;5007157;28;20008;-46
2023/01/28 01:05:03;;;;;;;;;;;;;;;;;;5008930;28;20290;-45
2023/01/28 01:07:40;;;;;;;;;;;;;;;;;;5004295;28;19917;-50
2023/01/28 01:10:07;;;;;;;;;;;;;;;;;;5004103;28;19924;-44
2023/01/28 01:12:32;;;;;;;;;;;;;;;;;;5005296;28;19936;-46
2023/01/28 01:14:57;;;;;;;;;;;;;;;;;;5006984;28;19917;-44
2023/01/28 01:17:23;;;;;;;;;;;;;;;;;;5006418;28;20370;-46
2023/01/28 01:19:48;;;;;;;;;;;;;;;;;;5007461;28;19948;-45
2023/01/28 01:22:13;;;;;;;;;;;;;;;;;;5002171;28;19921;-45
2023/01/28 01:24:39;;;;;;;;;;;;;;;;;;5005233;28;19921;-45
2023/01/28 01:27:04;;;;;;;;;;;;;;;;;;5007326;28;19921;-45
2023/01/28 01:29:30;;;;;;;;;;;;;;;;;;5003191;28;20048;-48
2023/01/28 01:31:55;;;;;;;;;;;;;;;;;;5006416;28;19999;-47
2023/01/28 01:34:21;;;;;;;;;;;;;;;;;;5007611;28;19944;-45
2023/01/28 01:36:46;;;;;;;;;;;;;;;;;;5006620;28;19917;-44
2023/01/28 01:39:11;;;;;;;;;;;;;;;;;;5006304;28;19928;-45
2023/01/28 01:41:37;;;;;;;;;;;;;;;;;;5008172;28;20388;-44
2023/01/28 01:44:03;;;;;;;;;;;;;;;;;;5005130;28;19929;-44
2023/01/28 01:46:31;;;;;;;;;;;;;;;;;;5006448;28;19924;-46
2023/01/28 01:49:00;;;;;;;;;;;;;;;;;;5007420;28;20441;-46
2023/01/28 01:51:29;;;;;;;;;;;;;;;;;;5007553;28;19920;-44
2023/01/28 01:53:57;;;;;;;;;;;;;;;;;;5007023;28;20425;-46
2023/01/28 01:56:25;;;;;;;;;;;;;;;;;;5009228;28;19914;-49
2023/01/28 01:58:53;;;;;;;;;;;;;;;;;;5007920;28;19925;-48
2023/01/28 02:01:20;;;;;;;;;;;;;;;;;;5010249;28;19960;-45
2023/01/28 02:03:50;;;;;;;;;;;;;;;;;;5008930;28;20293;-50
2023/01/28 02:06:15;;;;;;;;;;;;;;;;;;5009049;28;19979;-47
2023/01/28 02:08:41;;;;;;;;;;;;;;;;;;5012131;28;19933;-44
2023/01/28 02:11:07;;;;;;;;;;;;;;;;;;5011003;28;19917;-47
2023/01/28 02:13:46;;;;;;;;;;;;;;;;;;5010040;28;19922;-49
2023/01/28 02:16:11;;;;;;;;;;;;;;;;;;5007331;28;19979;-48
2023/01/28 02:18:37;;;;;;;;;;;;;;;;;;5007235;28;19921;-47
2023/01/28 02:21:28;;;;;;;;;;;;;;;;;;5009664;28;19928;-47
2023/01/28 02:24:07;;;;;;;;;;;;;;;;;;5006471;28;20293;-46
2023/01/28 02:26:51;;;;;;;;;;;;;;;;;;5007811;28;19975;-47
2023/01/28 02:29:16;;;;;;;;;;;;;;;;;;5010401;28;20019;-48
2023/01/28 02:32:13;;;;;;;;;;;;;;;;;;5008595;28;19964;-50
2023/01/28 02:34:39;;;;;;;;;;;;;;;;;;4969682;28;19972;-45
2023/01/28 02:37:13;;;;;;;;;;;;;;;;;;4967950;28;19976;-49
2023/01/28 02:39:46;;;;;;;;;;;;;;;;;;4967616;28;20334;-44
2023/01/28 02:42:26;;;;;;;;;;;;;;;;;;4970212;28;20378;-44
2023/01/28 02:44:52;;;;;;;;;;;;;;;;;;4970632;28;20449;-47
2023/01/28 02:50:04;;;;;;;;;;;;;;;;;;4968883;28;20013;-47
2023/01/28 02:55:25;;;;;;;;;;;;;;;;;;4970048;28;19981;-44
2023/01/28 02:57:53;;;;;;;;;;;;;;;;;;4971472;28;19926;-44
2023/01/28 03:00:22;;;;;;;;;;;;;;;;;;4968776;28;19914;-44
2023/01/28 03:02:53;;;;;;;;;;;;;;;;;;4966894;28;20426;-47
2023/01/28 03:05:19;;;;;;;;;;;;;;;;;;4966810;28;19996;-44
2023/01/28 03:07:45;;;;;;;;;;;;;;;;;;4966095;28;19925;-46
2023/01/28 03:10:13;;;;;;;;;;;;;;;;;;4985569;28;19967;-43
2023/01/28 03:37:34;;;;;;;;;;;;;;;;;;5009036;28;20428;-46
2023/01/28 03:40:01;;;;;;;;;;;;;;;;;;5009910;28;19925;-52
2023/01/28 03:42:26;;;;;;;;;;;;;;;;;;5007653;28;19988;-44
2023/01/28 03:44:51;;;;;;;;;;;;;;;;;;5009369;28;20386;-44
2023/01/28 03:47:17;;;;;;;;;;;;;;;;;;5008239;28;19918;-44
2023/01/28 03:49:50;;;;;;;;;;;;;;;;;;5007777;28;19925;-50
2023/01/28 03:52:17;;;;;;;;;;;;;;;;;;5009178;28;19921;-47
2023/01/28 03:54:43;;;;;;;;;;;;;;;;;;5006148;28;19967;-48
2023/01/28 03:57:08;;;;;;;;;;;;;;;;;;5010531;28;19921;-46
2023/01/28 03:59:33;;;;;;;;;;;;;;;;;;5008228;28;20369;-45
2023/01/28 04:01:59;;;;;;;;;;;;;;;;;;5007688;28;20400;-45
2023/01/28 04:04:24;;;;;;;;;;;;;;;;;;5008200;28;19925;-45
2023/01/28 04:06:50;;;;;;;;;;;;;;;;;;5008148;28;19914;-44
2023/01/28 04:09:15;;;;;;;;;;;;;;;;;;5006309;28;19921;-47
2023/01/28 04:11:41;;;;;;;;;;;;;;;;;;5010105;28;19956;-46
2023/01/28 04:14:06;;;;;;;;;;;;;;;;;;5007587;28;19921;-48
2023/01/28 04:16:31;;;;;;;;;;;;;;;;;;5004643;28;19921;-43
2023/01/28 04:18:57;;;;;;;;;;;;;;;;;;5008896;28;19967;-46
2023/01/28 04:21:22;;;;;;;;;;;;;;;;;;5005463;28;20297;-47
2023/01/28 04:23:48;;;;;;;;;;;;;;;;;;5008714;28;20020;-47
2023/01/28 04:26:13;;;;;;;;;;;;;;;;;;5005657;28;19979;-44
2023/01/28 04:28:38;;;;;;;;;;;;;;;;;;5006935;28;19935;-45
2023/01/28 04:31:03;;;;;;;;;;;;;;;;;;5006910;28;20275;-44
2023/01/28 04:33:29;;;;;;;;;;;;;;;;;;5008253;28;19941;-49
2023/01/28 04:35:54;;;;;;;;;;;;;;;;;;5008806;28;19918;-47
2023/01/28 04:38:19;;;;;;;;;;;;;;;;;;5006263;28;19936;-46
2023/01/28 04:40:47;;;;;;;;;;;;;;;;;;5007590;28;19917;-47
2023/01/28 04:43:13;;;;;;;;;;;;;;;;;;5004960;28;19944;-46
2023/01/28 04:45:38;;;;;;;;;;;;;;;;;;5007893;28;20370;-46
2023/01/28 04:48:04;;;;;;;;;;;;;;;;;;5007440;28;19922;-50
2023/01/28 04:50:29;;;;;;;;;;;;;;;;;;5004584;28;20403;-48
2023/01/28 04:52:54;;;;;;;;;;;;;;;;;;5006413;28;19929;-51
2023/01/28 04:55:19;;;;;;;;;;;;;;;;;;5022735;28;20263;-46
2023/01/28 04:57:46;;;;;;;;;;;;;;;;;;5004054;28;19921;-49
2023/01/28 05:00:12;;;;;;;;;;;;;;;;;;5005491;28;20023;-49
2023/01/28 05:02:37;;;;;;;;;;;;;;;;;;5006875;28;20016;-44
2023/01/28 05:05:04;;;;;;;;;;;;;;;;;;5007719;28;20504;-44
2023/01/28 05:07:30;;;;;;;;;;;;;;;;;;5009277;28;19975;-47
2023/01/28 05:09:55;;;;;;;;;;;;;;;;;;5006533;28;19917;-52
2023/01/28 05:12:20;;;;;;;;;;;;;;;;;;5007881;28;20371;-47
2023/01/28 05:14:46;;;;;;;;;;;;;;;;;;5005271;28;19914;-46
2023/01/28 05:17:11;;;;;;;;;;;;;;;;;;5008449;28;19917;-45
2023/01/28 05:19:36;;;;;;;;;;;;;;;;;;5007872;28;19918;-46
2023/01/28 05:22:02;;;;;;;;;;;;;;;;;;5006021;28;19914;-47
2023/01/28 05:24:27;;;;;;;;;;;;;;;;;;5006610;28;19929;-46
2023/01/28 05:26:52;;;;;;;;;;;;;;;;;;5007833;28;19925;-44
2023/01/28 05:29:17;;;;;;;;;;;;;;;;;;5006580;28;19922;-48
2023/01/28 05:31:43;;;;;;;;;;;;;;;;;;5010787;28;20040;-49
2023/01/28 05:34:08;;;;;;;;;;;;;;;;;;5009642;28;20447;-48
2023/01/28 05:36:33;;;;;;;;;;;;;;;;;;5011365;28;19913;-50
2023/01/28 05:38:58;;;;;;;;;;;;;;;;;;5011142;28;19979;-46
2023/01/28 05:41:24;;;;;;;;;;;;;;;;;;5009996;28;20381;-45
2023/01/28 05:43:49;;;;;;;;;;;;;;;;;;5008805;28;19932;-45
2023/01/28 05:46:14;;;;;;;;;;;;;;;;;;5010154;28;19986;-44
2023/01/28 05:48:39;;;;;;;;;;;;;;;;;;5009629;28;20397;-45
2023/01/28 05:51:05;;;;;;;;;;;;;;;;;;5011677;28;19987;-45
2023/01/28 05:53:30;;;;;;;;;;;;;;;;;;5012440;28;19976;-45
2023/01/28 05:55:56;;;;;;;;;;;;;;;;;;5012021;28;20370;-44
2023/01/28 05:58:21;;;;;;;;;;;;;;;;;;5008258;28;19931;-44
2023/01/28 06:00:47;;;;;;;;;;;;;;;;;;5006758;28;19968;-44
2023/01/28 06:03:12;;;;;;;;;;;;;;;;;;5006195;28;20424;-44
2023/01/28 06:05:37;;;;;;;;;;;;;;;;;;5011167;28;19910;-44
2023/01/28 06:08:03;;;;;;;;;;;;;;;;;;5009137;28;19948;-50
2023/01/28 06:10:28;;;;;;;;;;;;;;;;;;5009168;28;19917;-47
2023/01/28 06:12:54;;;;;;;;;;;;;;;;;;5008825;28;19921;-46
2023/01/28 06:15:19;;;;;;;;;;;;;;;;;;5009310;28;19940;-49
2023/01/28 06:17:44;;;;;;;;;;;;;;;;;;5011694;28;19925;-49
2023/01/28 06:20:10;;;;;;;;;;;;;;;;;;5010376;28;20278;-44
2023/01/28 06:22:35;;;;;;;;;;;;;;;;;;5009498;28;19922;-44
2023/01/28 06:25:00;;;;;;;;;;;;;;;;;;5010573;28;19925;-47
2023/01/28 06:27:26;;;;;;;;;;;;;;;;;;5008877;28;19931;-46
2023/01/28 06:29:51;;;;;;;;;;;;;;;;;;5007848;28;19925;-46
2023/01/28 06:32:17;;;;;;;;;;;;;;;;;;5009384;28;20004;-46
2023/01/28 06:34:42;;;;;;;;;;;;;;;;;;5008847;28;20270;-48
2023/01/28 06:37:07;;;;;;;;;;;;;;;;;;5013412;28;20374;-47
2023/01/28 06:39:33;;;;;;;;;;;;;;;;;;5009769;28;19917;-50
2023/01/28 06:41:59;;;;;;;;;;;;;;;;;;5010457;28;19952;-48
2023/01/28 06:44:24;;;;;;;;;;;;;;;;;;5010569;28;19929;-44
2023/01/28 06:46:49;;;;;;;;;;;;;;;;;;5009824;28;19920;-47
2023/01/28 06:49:14;;;;;;;;;;;;;;;;;;5009028;28;19925;-44
2023/01/28 06:51:40;;;;;;;;;;;;;;;;;;5006105;28;19933;-47
2023/01/28 06:54:05;;;;;;;;;;;;;;;;;;5008084;28;20325;-47
2023/01/28 06:56:30;;;;;;;;;;;;;;;;;;5008631;28;19925;-49
2023/01/28 06:58:56;;;;;;;;;;;;;;;;;;5008627;28;19925;-45
2023/01/28 07:01:21;;;;;;;;;;;;;;;;;;5009444;28;19917;-52
2023/01/28 07:03:46;;;;;;;;;;;;;;;;;;5006405;28;19929;-44
2023/01/28 07:06:11;;;;;;;;;;;;;;;;;;5010081;28;19918;-47
2023/01/28 07:08:38;;;;;;;;;;;;;;;;;;5005396;28;20466;-45
2023/01/28 07:11:04;;;;;;;;;;;;;;;;;;5008873;28;20397;-44
2023/01/28 07:13:29;;;;;;;;;;;;;;;;;;5008759;28;19929;-46
2023/01/28 07:15:54;;;;;;;;;;;;;;;;;;5008580;28;19917;-47
2023/01/28 07:18:20;;;;;;;;;;;;;;;;;;5007676;28;19940;-44
2023/01/28 07:20:45;;;;;;;;;;;;;;;;;;5009027;28;19913;-47
2023/01/28 07:23:11;;;;;;;;;;;;;;;;;;5009584;28;19936;-44
2023/01/28 07:25:36;;;;;;;;;;;;;;;;;;5008157;28;19995;-47
2023/01/28 07:28:01;;;;;;;;;;;;;;;;;;5011292;28;20405;-43
2023/01/28 07:30:27;;;;;;;;;;;;;;;;;;5007252;28;19933;-48
2023/01/28 07:32:53;;;;;;;;;;;;;;;;;;5006250;28;20023;-44
2023/01/28 07:35:18;;;;;;;;;;;;;;;;;;5008693;28;19917;-46
2023/01/28 07:37:49;;;;;;;;;;;;;;;;;;5009709;28;19921;-50
2023/01/28 07:40:15;;;;;;;;;;;;;;;;;;5007579;28;19929;-44
2023/01/28 07:42:41;;;;;;;;;;;;;;;;;;5006392;28;23509;-46
2023/01/28 07:45:06;;;;;;;;;;;;;;;;;;5009812;28;19925;-46
2023/01/28 07:47:32;;;;;;;;;;;;;;;;;;5008478;28;19925;-44
2023/01/28 07:49:57;;;;;;;;;;;;;;;;;;5005620;28;19917;-44
2023/01/28 07:52:23;;;;;;;;;;;;;;;;;;5006670;28;19925;-44
2023/01/28 07:54:48;;;;;;;;;;;;;;;;;;5006724;28;19918;-46
2023/01/28 07:57:13;;;;;;;;;;;;;;;;;;5006225;28;19921;-49
2023/01/28 07:59:38;;;;;;;;;;;;;;;;;;5007687;28;19980;-48
2023/01/28 08:02:04;;;;;;;;;;;;;;;;;;5005297;28;19917;-46
2023/01/28 08:04:29;;;;;;;;;;;;;;;;;;5008611;28;19926;-50
2023/01/28 08:06:55;;;;;;;;;;;;;;;;;;5007869;28;20454;-46
2023/01/28 08:09:21;;;;;;;;;;;;;;;;;;5006492;28;19972;-44
2023/01/28 08:11:46;;;;;;;;;;;;;;;;;;5008539;28;19921;-44
2023/01/28 08:14:11;;;;;;;;;;;;;;;;;;5005047;28;20424;-47
2023/01/28 08:16:36;;;;;;;;;;;;;;;;;;5007934;28;19940;-50
2023/01/28 08:19:02;;;;;;;;;;;;;;;;;;5005506;28;20406;-45
2023/01/28 08:21:27;;;;;;;;;;;;;;;;;;5009177;28;19918;-45
2023/01/28 08:23:53;;;;;;;;;;;;;;;;;;5005206;28;19948;-43
2023/01/28 08:26:19;;;;;;;;;;;;;;;;;;5005836;28;19924;-44
2023/01/28 08:28:44;;;;;;;;;;;;;;;;;;5005802;28;19952;-49
2023/01/28 08:31:09;;;;;;;;;;;;;;;;;;5008679;28;19921;-47
2023/01/28 08:33:34;;;;;;;;;;;;;;;;;;5005763;28;19968;-47
2023/01/28 08:36:03;;;;;;;;;;;;;;;;;;5007690;28;19974;-45
2023/01/28 08:38:29;;;;;;;;;;;;;;;;;;5006277;28;19922;-45
2023/01/28 08:40:58;;;;;;;;;;;;;;;;;;5008768;28;19917;-46
2023/01/28 08:43:24;;;;;;;;;;;;;;;;;;5004853;28;19995;-46
2023/01/28 08:45:49;;;;;;;;;;;;;;;;;;5005893;28;20393;-47
2023/01/28 08:48:15;;;;;;;;;;;;;;;;;;5005581;28;19933;-44
2023/01/28 08:50:41;;;;;;;;;;;;;;;;;;5002153;28;19926;-45
2023/01/28 08:53:09;;;;;;;;;;;;;;;;;;5006665;28;19928;-52
2023/01/28 08:55:34;;;;;;;;;;;;;;;;;;5010498;28;20618;-47
2023/01/28 08:58:06;;;;;;;;;;;;;;;;;;5003331;28;19926;-47
2023/01/28 09:00:33;;;;;;;;;;;;;;;;;;5007814;28;19925;-47
2023/01/28 09:02:58;;;;;;;;;;;;;;;;;;5009775;28;19922;-44
2023/01/28 09:05:23;;;;;;;;;;;;;;;;;;5006713;28;19932;-45
2023/01/28 09:07:49;;;;;;;;;;;;;;;;;;5005473;28;20011;-48
2023/01/28 09:10:15;;;;;;;;;;;;;;;;;;5004804;28;19944;-48
2023/01/28 09:12:40;;;;;;;;;;;;;;;;;;5004712;28;19925;-44
2023/01/28 09:15:06;;;;;;;;;;;;;;;;;;5006261;28;19929;-45
2023/01/28 09:17:31;;;;;;;;;;;;;;;;;;5009980;28;19986;-44
2023/01/28 09:19:56;;;;;;;;;;;;;;;;;;5003538;28;19932;-45
2023/01/28 09:22:22;;;;;;;;;;;;;;;;;;5006326;28;20428;-46
2023/01/28 09:24:47;;;;;;;;;;;;;;;;;;5008128;28;19917;-46
2023/01/28 09:27:12;;;;;;;;;;;;;;;;;;5005225;28;19917;-42
2023/01/28 09:29:37;;;;;;;;;;;;;;;;;;5008113;28;19969;-47
2023/01/28 09:32:03;;;;;;;;;;;;;;;;;;5005507;28;19917;-47
2023/01/28 09:34:29;;;;;;;;;;;;;;;;;;5006226;28;20004;-49
2023/01/28 09:36:54;;;;;;;;;;;;;;;;;;5008430;28;20385;-44
2023/01/28 09:39:19;;;;;;;;;;;;;;;;;;5006803;28;19925;-46
2023/01/28 09:42:08;;;;;;;;;;;;;;;;;;5006807;28;19921;-47
2023/01/28 09:44:33;;;;;;;;;;;;;;;;;;5000838;28;19928;-45
2023/01/28 09:47:00;;;;;;;;;;;;;;;;;;5006302;28;20587;-45
2023/01/28 09:49:46;;;;;;;;;;;;;;;;;;5003538;28;20024;-44
2023/01/28 09:52:13;;;;;;;;;;;;;;;;;;5005091;28;19921;-47
2023/01/28 09:54:57;;;;;;;;;;;;;;;;;;5006112;28;19929;-47
2023/01/28 09:57:23;;;;;;;;;;;;;;;;;;5007582;28;19917;-46
2023/01/28 09:59:48;;;;;;;;;;;;;;;;;;5003327;28;19921;-46
2023/01/28 10:02:30;;;;;;;;;;;;;;;;;;5006229;28;19932;-46
2023/01/28 10:05:13;;;;;;;;;;;;;;;;;;5006359;28;19960;-44
2023/01/28 10:08:01;;;;;;;;;;;;;;;;;;5003820;28;20279;-45
2023/01/28 10:10:43;;;;;;;;;;;;;;;;;;5006323;28;19938;-48
2023/01/28 10:13:11;;;;;;;;;;;;;;;;;;5005079;28;19925;-47
2023/01/28 10:15:46;;;;;;;;;;;;;;;;;;5009254;28;21397;-44
2023/01/28 10:18:12;;;;;;;;;;;;;;;;;;5007451;28;20011;-49
2023/01/28 10:20:41;;;;;;;;;;;;;;;;;;5008716;28;19965;-45
2023/01/28 10:23:18;;;;;;;;;;;;;;;;;;5008944;28;19928;-49
2023/01/28 10:25:47;;;;;;;;;;;;;;;;;;5007518;28;19921;-44
2023/01/28 10:28:26;;;;;;;;;;;;;;;;;;5005718;28;19925;-44
2023/01/28 10:30:52;;;;;;;;;;;;;;;;;;5007989;28;19925;-46
2023/01/28 10:33:21;;;;;;;;;;;;;;;;;;5008127;28;19921;-43
2023/01/28 10:35:47;;;;;;;;;;;;;;;;;;5005061;28;19921;-45
2023/01/28 10:38:14;;;;;;;;;;;;;;;;;;5008800;28;19931;-50
2023/01/28 10:40:42;;;;;;;;;;;;;;;;;;5010162;28;20405;-46
2023/01/28 10:43:08;;;;;;;;;;;;;;;;;;5007888;28;19926;-48
2023/01/28 10:45:47;;;;;;;;;;;;;;;;;;5007587;28;19917;-51
2023/01/28 10:48:23;;;;;;;;;;;;;;;;;;5010161;28;19921;-45
2023/01/28 10:50:52;;;;;;;;;;;;;;;;;;5009878;28;20429;-45
2023/01/28 10:53:18;;;;;;;;;;;;;;;;;;5008964;28;19926;-44
2023/01/28 10:55:48;;;;;;;;;;;;;;;;;;5003071;28;20052;-47
2023/01/28 10:58:17;;;;;;;;;;;;;;;;;;5009055;28;20286;-47
2023/01/28 11:00:42;;;;;;;;;;;;;;;;;;5008871;28;19917;-51
2023/01/28 11:03:15;;;;;;;;;;;;;;;;;;5006540;28;19929;-45
2023/01/28 11:05:49;;;;;;;;;;;;;;;;;;5011998;28;19963;-43
2023/01/28 11:08:15;;;;;;;;;;;;;;;;;;5009564;28;19922;-47
2023/01/28 11:10:41;;;;;;;;;;;;;;;;;;5007043;28;20086;-44
2023/01/28 11:13:17;;;;;;;;;;;;;;;;;;5007241;28;20430;-47
2023/01/28 11:15:46;;;;;;;;;;;;;;;;;;5010583;28;19921;-44
2023/01/28 11:18:21;;;;;;;;;;;;;;;;;;5006024;28;19926;-50
2023/01/28 11:20:51;;;;;;;;;;;;;;;;;;5005175;28;20405;-49
2023/01/28 11:23:22;;;;;;;;;;;;;;;;;;5008997;28;19933;-46
2023/01/28 11:25:47;;;;;;;;;;;;;;;;;;5007463;28;19921;-50
2023/01/28 11:28:18;;;;;;;;;;;;;;;;;;5003858;28;19967;-46
2023/01/28 11:30:48;;;;;;;;;;;;;;;;;;5006720;28;20389;-46
2023/01/28 11:33:16;;;;;;;;;;;;;;;;;;5006177;28;19926;-47
2023/01/28 11:35:51;;;;;;;;;;;;;;;;;;5010493;28;20626;-46
2023/01/28 11:38:18;;;;;;;;;;;;;;;;;;5000980;28;19932;-48
2023/01/28 11:40:53;;;;;;;;;;;;;;;;;;5006674;28;19925;-48
2023/01/28 11:43:23;;;;;;;;;;;;;;;;;;5004728;28;19971;-50
2023/01/28 11:46:18;;;;;;;;;;;;;;;;;;5005192;28;19924;-45
2023/01/28 11:48:55;;;;;;;;;;;;;;;;;;4972581;28;19921;-47
2023/01/28 11:51:46;;;;;;;;;;;;;;;;;;4959535;28;19976;-49
2023/01/28 11:54:30;;;;;;;;;;;;;;;;;;4926201;29;20349;-47
2023/01/28 11:57:05;;;;;;;;;;;;;;;;;;4926041;29;19918;-46
2023/01/28 11:59:33;;;;;;;;;;;;;;;;;;4921970;29;20560;-45
2023/01/28 12:01:58;;;;;;;;;;;;;;;;;;4929567;29;19965;-47
2023/01/28 12:04:29;;;;;;;;;;;;;;;;;;4929129;29;19930;-47
2023/01/28 12:07:10;;;;;;;;;;;;;;;;;;4926456;29;19919;-45
2023/01/28 12:09:44;;;;;;;;;;;;;;;;;;4921033;29;19978;-46
2023/01/28 12:12:15;;;;;;;;;;;;;;;;;;4921655;29;20001;-45
2023/01/28 12:14:43;;;;;;;;;;;;;;;;;;4917285;29;20033;-51
2023/01/28 12:17:17;;;;;;;;;;;;;;;;;;4921140;29;22468;-44
2023/01/28 12:19:50;;;;;;;;;;;;;;;;;;4922543;29;20002;-46
2023/01/28 12:22:30;;;;;;;;;;;;;;;;;;4919675;29;19966;-46
2023/01/28 12:25:08;;;;;;;;;;;;;;;;;;4948586;28;20310;-47
2023/01/28 12:27:34;;;;;;;;;;;;;;;;;;4982804;28;19929;-48
2023/01/28 12:30:03;;;;;;;;;;;;;;;;;;4980555;28;20490;-49
2023/01/28 12:32:37;;;;;;;;;;;;;;;;;;5009815;28;19928;-50
2023/01/28 12:35:20;;;;;;;;;;;;;;;;;;5004947;28;20938;-44
2023/01/28 12:37:45;;;;;;;;;;;;;;;;;;5003274;28;19976;-48
2023/01/28 12:40:25;;;;;;;;;;;;;;;;;;5007047;28;20323;-46
2023/01/28 12:43:10;;;;;;;;;;;;;;;;;;5005760;28;19980;-46
2023/01/28 12:45:40;;;;;;;;;;;;;;;;;;5007782;28;20437;-47
2023/01/28 12:48:12;;;;;;;;;;;;;;;;;;5010475;28;20457;-45
2023/01/28 12:50:50;;;;;;;;;;;;;;;;;;5007803;28;19982;-47
2023/01/28 12:53:30;;;;;;;;;;;;;;;;;;5005668;28;19933;-47
2023/01/28 12:55:56;;;;;;;;;;;;;;;;;;5007405;28;19924;-48
2023/01/28 12:58:47;;;;;;;;;;;;;;;;;;5003673;28;19925;-46
2023/01/28 13:01:15;;;;;;;;;;;;;;;;;;4946761;28;19953;-44
2023/01/28 13:03:40;;;;;;;;;;;;;;;;;;4947137;29;20017;-48
2023/01/28 13:06:18;;;;;;;;;;;;;;;;;;4945945;29;20356;-44
2023/01/28 13:08:43;;;;;;;;;;;;;;;;;;4938913;28;20395;-45
2023/01/28 13:11:12;;;;;;;;;;;;;;;;;;4944047;29;19927;-45
2023/01/28 13:13:41;;;;;;;;;;;;;;;;;;4954223;28;19930;-45
2023/01/28 13:16:07;;;;;;;;;;;;;;;;;;4962744;28;19918;-45
2023/01/28 13:18:38;;;;;;;;;;;;;;;;;;4963087;28;20031;-47
2023/01/28 13:21:04;;;;;;;;;;;;;;;;;;4958298;28;20045;-44
2023/01/28 13:23:30;;;;;;;;;;;;;;;;;;4961299;28;19943;-48
2023/01/28 13:25:56;;;;;;;;;;;;;;;;;;4957806;28;20302;-49
2023/01/28 13:28:26;;;;;;;;;;;;;;;;;;4963735;28;19966;-45
2023/01/28 13:30:59;;;;;;;;;;;;;;;;;;4966194;28;19973;-44
2023/01/28 13:33:27;;;;;;;;;;;;;;;;;;4959035;28;19922;-48
2023/01/28 13:35:54;;;;;;;;;;;;;;;;;;4960393;28;19922;-44
2023/01/28 13:38:20;;;;;;;;;;;;;;;;;;4972649;28;20489;-48
2023/01/28 13:41:05;;;;;;;;;;;;;;;;;;4978250;28;19933;-46
2023/01/28 13:43:33;;;;;;;;;;;;;;;;;;4998643;28;19921;-47
2023/01/28 13:46:09;;;;;;;;;;;;;;;;;;5006234;28;19960;-44
2023/01/28 13:49:02;;;;;;;;;;;;;;;;;;5008484;28;20378;-45
2023/01/28 13:51:31;;;;;;;;;;;;;;;;;;5004336;28;19931;-47
2023/01/28 13:54:06;;;;;;;;;;;;;;;;;;5012613;28;19929;-45
2023/01/28 13:56:40;;;;;;;;;;;;;;;;;;5007155;28;19925;-48
2023/01/28 13:59:05;;;;;;;;;;;;;;;;;;5009824;28;20012;-49
2023/01/28 14:01:43;;;;;;;;;;;;;;;;;;5010489;28;20019;-46
2023/01/28 14:04:25;;;;;;;;;;;;;;;;;;5008934;28;19925;-44
2023/01/28 14:07:06;;;;;;;;;;;;;;;;;;5010476;28;19917;-48
2023/01/28 14:09:50;;;;;;;;;;;;;;;;;;5007416;28;19992;-47
2023/01/28 14:12:22;;;;;;;;;;;;;;;;;;5006367;28;20063;-46
2023/01/28 14:14:47;;;;;;;;;;;;;;;;;;5008207;28;19917;-49
2023/01/28 14:17:15;;;;;;;;;;;;;;;;;;5010643;28;19924;-45
2023/01/28 14:19:40;;;;;;;;;;;;;;;;;;5010176;28;19928;-45
2023/01/28 14:22:09;;;;;;;;;;;;;;;;;;5007823;28;19921;-45
2023/01/28 14:24:38;;;;;;;;;;;;;;;;;;5008214;28;19933;-44
2023/01/28 14:27:10;;;;;;;;;;;;;;;;;;5007913;28;20288;-48
2023/01/28 14:29:49;;;;;;;;;;;;;;;;;;5004116;28;19922;-44
2023/01/28 14:32:19;;;;;;;;;;;;;;;;;;5008320;28;20286;-45
2023/01/28 14:34:45;;;;;;;;;;;;;;;;;;5010839;28;20004;-44
2023/01/28 14:37:12;;;;;;;;;;;;;;;;;;5008429;28;20385;-49
2023/01/28 14:39:42;;;;;;;;;;;;;;;;;;5003775;28;20072;-47
2023/01/28 14:42:13;;;;;;;;;;;;;;;;;;5005466;28;19980;-44
2023/01/28 14:44:39;;;;;;;;;;;;;;;;;;5006330;28;19928;-50
2023/01/28 14:47:14;;;;;;;;;;;;;;;;;;5008223;28;19940;-47
2023/01/28 14:49:39;;;;;;;;;;;;;;;;;;5011638;28;20378;-45
2023/01/28 14:52:28;;;;;;;;;;;;;;;;;;5007806;28;19920;-47
2023/01/28 14:54:53;;;;;;;;;;;;;;;;;;5008529;28;19928;-47
2023/01/28 14:57:24;;;;;;;;;;;;;;;;;;5008139;28;19918;-45
2023/01/28 14:59:54;;;;;;;;;;;;;;;;;;5009135;28;19968;-44
2023/01/28 15:02:21;;;;;;;;;;;;;;;;;;5036836;28;21189;-44
2023/01/28 15:04:46;;;;;;;;;;;;;;;;;;5009124;28;20500;-49
2023/01/28 15:07:14;;;;;;;;;;;;;;;;;;5008422;28;19921;-47
2023/01/28 15:09:40;;;;;;;;;;;;;;;;;;5006351;28;19924;-52
2023/01/28 15:12:06;;;;;;;;;;;;;;;;;;5009651;28;19917;-44
2023/01/28 15:14:31;;;;;;;;;;;;;;;;;;5007887;28;19925;-48
2023/01/28 15:16:57;;;;;;;;;;;;;;;;;;5007143;28;20281;-47
2023/01/28 15:19:30;;;;;;;;;;;;;;;;;;5003961;28;19986;-50
2023/01/28 15:21:57;;;;;;;;;;;;;;;;;;5008845;28;19921;-44
2023/01/28 15:24:22;;;;;;;;;;;;;;;;;;5006980;28;19929;-48
2023/01/28 15:26:48;;;;;;;;;;;;;;;;;;5008987;28;20367;-46
2023/01/28 15:29:32;;;;;;;;;;;;;;;;;;5006897;28;19928;-49
2023/01/28 15:31:58;;;;;;;;;;;;;;;;;;5007511;28;20271;-44
2023/01/28 15:34:28;;;;;;;;;;;;;;;;;;5008958;28;19931;-45
2023/01/28 15:36:54;;;;;;;;;;;;;;;;;;5004674;28;19917;-47
2023/01/28 15:39:20;;;;;;;;;;;;;;;;;;5005575;28;20008;-48
2023/01/28 15:41:48;;;;;;;;;;;;;;;;;;5005855;28;20398;-43
2023/01/28 15:44:15;;;;;;;;;;;;;;;;;;5006739;28;20072;-46
2023/01/28 15:46:40;;;;;;;;;;;;;;;;;;5011534;28;19917;-43
2023/01/28 15:49:06;;;;;;;;;;;;;;;;;;5007524;28;19933;-43
2023/01/28 15:51:32;;;;;;;;;;;;;;;;;;5009142;28;20292;-44
2023/01/28 15:54:04;;;;;;;;;;;;;;;;;;5007222;28;20290;-49
2023/01/28 15:56:29;;;;;;;;;;;;;;;;;;5005557;28;19924;-44
2023/01/28 15:58:55;;;;;;;;;;;;;;;;;;5009491;28;19925;-44
2023/01/28 16:01:21;;;;;;;;;;;;;;;;;;5006220;28;19925;-52
2023/01/28 16:03:59;;;;;;;;;;;;;;;;;;5007522;28;20289;-50
2023/01/28 16:06:28;;;;;;;;;;;;;;;;;;5001465;28;19982;-52
2023/01/28 16:08:58;;;;;;;;;;;;;;;;;;5004523;28;20429;-48
2023/01/28 16:11:24;;;;;;;;;;;;;;;;;;5005876;28;19926;-46
2023/01/28 16:13:50;;;;;;;;;;;;;;;;;;5003166;28;19932;-51
2023/01/28 16:16:23;;;;;;;;;;;;;;;;;;5009219;28;19921;-45
2023/01/28 16:18:52;;;;;;;;;;;;;;;;;;5009052;28;20408;-46
2023/01/28 16:21:23;;;;;;;;;;;;;;;;;;5004969;28;19925;-48
2023/01/28 16:23:58;;;;;;;;;;;;;;;;;;5005431;28;19929;-47
2023/01/28 16:26:24;;;;;;;;;;;;;;;;;;5004604;28;19952;-44
2023/01/28 16:28:50;;;;;;;;;;;;;;;;;;5003701;28;19928;-47
2023/01/28 16:31:15;;;;;;;;;;;;;;;;;;5007673;28;19921;-45
2023/01/28 16:33:40;;;;;;;;;;;;;;;;;;5005718;28;20554;-44
2023/01/28 16:36:08;;;;;;;;;;;;;;;;;;5004331;28;19961;-44
2023/01/28 16:38:33;;;;;;;;;;;;;;;;;;5007850;28;20008;-44
2023/01/28 16:40:59;;;;;;;;;;;;;;;;;;5008727;28;20322;-44
2023/01/28 16:43:24;;;;;;;;;;;;;;;;;;5005862;28;20387;-49
2023/01/28 16:45:49;;;;;;;;;;;;;;;;;;5008224;28;19926;-44
2023/01/28 16:48:15;;;;;;;;;;;;;;;;;;5004732;28;19921;-45
2023/01/28 16:50:41;;;;;;;;;;;;;;;;;;5005487;28;19940;-46
2023/01/28 16:53:18;;;;;;;;;;;;;;;;;;5002470;28;19929;-47
2023/01/28 16:55:43;;;;;;;;;;;;;;;;;;5005315;28;19925;-46
2023/01/28 16:58:09;;;;;;;;;;;;;;;;;;5003307;28;19928;-45
2023/01/28 17:00:35;;;;;;;;;;;;;;;;;;5004746;28;19921;-45
2023/01/28 17:03:00;;;;;;;;;;;;;;;;;;5005529;28;20382;-44
2023/01/28 17:05:26;;;;;;;;;;;;;;;;;;5002999;28;19925;-47
2023/01/28 17:07:53;;;;;;;;;;;;;;;;;;5005143;28;19975;-44
2023/01/28 17:10:19;;;;;;;;;;;;;;;;;;5008839;28;19964;-48
2023/01/28 17:12:46;;;;;;;;;;;;;;;;;;5006797;28;19960;-45
2023/01/28 17:15:11;;;;;;;;;;;;;;;;;;5005551;28;20021;-44
2023/01/28 17:17:36;;;;;;;;;;;;;;;;;;5006931;28;20461;-49
2023/01/28 17:20:02;;;;;;;;;;;;;;;;;;5007574;28;19926;-46
2023/01/28 17:22:27;;;;;;;;;;;;;;;;;;5000970;28;20326;-45
2023/01/28 17:24:52;;;;;;;;;;;;;;;;;;5008091;28;19944;-46